Time;durP1;ratioP1;P1;durP2;ratioP2;P2;SDS_P1;SDS_P2;PMS_P1;PMS_P2;Temp;Humidity;BMP_temperature;BMP_pressure;BME280_temperature;BME280_humidity;BME280_pressure;Samples;Min_cycle;Max_cycle;Signal;HPM_P1;HPM_P2
2023/05/27 00:00:45;;;;;;;;;;;;;;;23.58;61.45;101387.78;5020406;28;19936;-84
2023/05/27 00:03:12;;;;;;;;;;;;;;;23.54;62.29;101390.06;5026075;28;19924;-85
2023/05/27 00:05:40;;;;;;;;;;;;;;;23.59;61.87;101393.03;5026620;28;20455;-84
2023/05/27 00:08:06;;;;;;;;;;;;;;;23.57;62.08;101392.38;5026746;28;20128;-85
2023/05/27 00:10:39;;;;;;;;;;;;;;;23.56;62.23;101390.69;5022440;28;19925;-84
2023/05/27 00:13:06;;;;;;;;;;;;;;;23.54;62.35;101395.47;4999176;28;19960;-85
2023/05/27 00:15:33;;;;;;;;;;;;;;;23.50;62.39;101394.22;5017912;28;20002;-85
2023/05/27 00:18:08;;;;;;;;;;;;;;;23.44;62.95;101393.16;5019610;28;19929;-85
2023/05/27 00:20:36;;;;;;;;;;;;;;;23.42;63.29;101394.38;5015903;28;20206;-85
2023/05/27 00:23:03;;;;;;;;;;;;;;;23.40;63.18;101389.19;5023032;28;20263;-86
2023/05/27 00:25:33;;;;;;;;;;;;;;;23.38;62.84;101395.84;5020654;28;19924;-86
2023/05/27 00:28:01;;;;;;;;;;;;;;;23.40;63.04;101393.75;5013020;28;20321;-85
2023/05/27 00:30:34;;;;;;;;;;;;;;;23.43;62.70;101398.78;5002304;28;20166;-86
2023/05/27 00:33:04;;;;;;;;;;;;;;;23.53;62.33;101388.41;5018720;28;19935;-86
2023/05/27 00:35:31;;;;;;;;;;;;;;;23.52;62.33;101384.03;5041334;28;19934;-84
2023/05/27 00:38:04;;;;;;;;;;;;;;;23.54;62.49;101379.22;5029331;28;19928;-85
2023/05/27 00:40:34;;;;;;;;;;;;;;;23.55;62.67;101385.50;5024966;28;19931;-86
2023/05/27 00:43:03;;;;;;;;;;;;;;;23.57;62.38;101384.25;5005373;28;19978;-86
2023/05/27 00:45:30;;;;;;;;;;;;;;;23.66;61.86;101383.00;5008291;28;19963;-86
2023/05/27 00:47:58;;;;;;;;;;;;;;;23.68;60.84;101389.06;5001885;28;19925;-85
2023/05/27 00:50:27;;;;;;;;;;;;;;;23.68;60.63;101386.34;5021936;28;19983;-86
2023/05/27 00:52:58;;;;;;;;;;;;;;;23.66;60.42;101391.13;5025159;28;19978;-84
2023/05/27 00:55:29;;;;;;;;;;;;;;;23.58;59.83;101385.91;5027459;28;20054;-83
2023/05/27 00:57:55;;;;;;;;;;;;;;;23.53;60.28;101384.84;5029379;28;19924;-85
2023/05/27 01:00:22;;;;;;;;;;;;;;;23.49;60.78;101391.72;5038304;28;19924;-85
2023/05/27 01:02:51;;;;;;;;;;;;;;;23.44;60.99;101381.47;5042615;28;19928;-83
2023/05/27 01:05:18;;;;;;;;;;;;;;;23.44;61.85;101379.59;5036330;28;20294;-84
2023/05/27 01:08:11;;;;;;;;;;;;;;;23.37;61.73;101376.03;4991439;28;20300;-86
2023/05/27 01:10:43;;;;;;;;;;;;;;;23.37;61.95;101373.31;5002029;28;20312;-85
2023/05/27 01:13:17;;;;;;;;;;;;;;;23.49;61.34;101370.88;5007779;28;19969;-84
2023/05/27 01:15:54;;;;;;;;;;;;;;;22.91;61.56;101281.00;5008400;28;20249;-86
2023/05/27 01:18:29;;;;;;;;;;;;;;;23.46;61.92;101376.69;5006932;28;20015;-86
2023/05/27 01:21:03;;;;;;;;;;;;;;;23.47;62.33;101389.19;5015708;28;20244;-87
2023/05/27 01:23:32;;;;;;;;;;;;;;;23.39;62.67;101402.94;5015583;28;19978;-85
2023/05/27 01:26:08;;;;;;;;;;;;;;;23.03;63.27;101371.50;5014187;28;20209;-86
2023/05/27 01:28:37;;;;;;;;;;;;;;;23.41;62.23;101445.03;4981749;28;20062;-84
2023/05/27 01:31:15;;;;;;;;;;;;;;;23.33;62.25;101463.34;5023004;28;20382;-85
2023/05/27 01:33:45;;;;;;;;;;;;;;;23.09;63.46;101464.66;5013121;28;19925;-86
2023/05/27 01:36:16;;;;;;;;;;;;;;;23.00;64.25;101469.38;5013751;28;19970;-85
2023/05/27 01:38:45;;;;;;;;;;;;;;;22.89;64.97;101468.03;5037458;28;20015;-85
2023/05/27 01:41:14;;;;;;;;;;;;;;;22.94;65.00;101486.41;4997595;28;20313;-85
2023/05/27 01:43:44;;;;;;;;;;;;;;;22.62;65.10;101434.47;4992785;28;20366;-87
2023/05/27 01:46:10;;;;;;;;;;;;;;;22.88;65.39;101488.00;5009517;28;19945;-85
2023/05/27 01:48:40;;;;;;;;;;;;;;;22.89;65.73;101489.69;5000117;28;20299;-85
2023/05/27 01:51:09;;;;;;;;;;;;;;;22.73;66.71;101493.50;5022142;28;20025;-86
2023/05/27 01:53:36;;;;;;;;;;;;;;;22.70;66.61;101503.91;5031758;28;20064;-85
2023/05/27 01:56:06;;;;;;;;;;;;;;;22.24;66.97;101478.06;5015903;28;20264;-85
2023/05/27 01:58:37;;;;;;;;;;;;;;;22.22;67.25;101466.59;5027130;28;20283;-85
2023/05/27 02:01:03;;;;;;;;;;;;;;;22.49;67.56;101523.66;5007304;28;19925;-85
2023/05/27 02:03:36;;;;;;;;;;;;;;;22.17;67.63;101474.41;5042267;28;19963;-85
2023/05/27 02:06:05;;;;;;;;;;;;;;;22.59;67.43;101527.72;5031076;28;20498;-85
2023/05/27 02:08:33;;;;;;;;;;;;;;;22.51;68.00;101525.16;5038349;28;20185;-84
2023/05/27 02:11:01;;;;;;;;;;;;;;;22.47;68.30;101528.44;5045275;28;19924;-85
2023/05/27 02:13:28;;;;;;;;;;;;;;;22.46;68.78;101524.06;5024472;28;19928;-84
2023/05/27 02:16:01;;;;;;;;;;;;;;;22.32;68.03;101509.56;5016475;28;20175;-86
2023/05/27 02:18:34;;;;;;;;;;;;;;;22.08;69.38;101486.38;5017077;28;19936;-85
2023/05/27 02:21:06;;;;;;;;;;;;;;;22.23;70.34;101527.75;5014127;28;20432;-85
2023/05/27 02:23:33;;;;;;;;;;;;;;;22.27;70.18;101529.06;5011218;28;20255;-85
2023/05/27 02:26:00;;;;;;;;;;;;;;;22.17;70.44;101531.19;5018835;28;19924;-85
2023/05/27 02:28:27;;;;;;;;;;;;;;;22.08;71.83;101535.03;5019844;28;20210;-83
2023/05/27 02:30:54;;;;;;;;;;;;;;;22.00;72.83;101537.88;5015893;28;20656;-84
2023/05/27 02:33:20;;;;;;;;;;;;;;;21.91;73.20;101534.41;5038119;28;20019;-85
2023/05/27 02:35:50;;;;;;;;;;;;;;;21.91;75.01;101535.25;5025292;28;20015;-86
2023/05/27 02:38:17;;;;;;;;;;;;;;;21.90;73.73;101533.59;5036426;28;20409;-85
2023/05/27 02:40:44;;;;;;;;;;;;;;;21.80;74.08;101537.59;5028985;28;19928;-85
2023/05/27 02:43:12;;;;;;;;;;;;;;;21.73;75.39;101526.72;5024490;28;19924;-86
2023/05/27 02:45:38;;;;;;;;;;;;;;;21.73;75.65;101526.72;5034492;28;19935;-86
2023/05/27 02:48:05;;;;;;;;;;;;;;;21.60;76.22;101521.09;5027694;28;19925;-86
2023/05/27 02:50:32;;;;;;;;;;;;;;;21.54;76.12;101518.13;5021573;28;20165;-86
2023/05/27 02:52:59;;;;;;;;;;;;;;;21.61;75.02;101522.81;5021340;28;19924;-86
2023/05/27 02:55:31;;;;;;;;;;;;;;;21.57;76.50;101516.91;5022940;28;19958;-87
2023/05/27 02:58:08;;;;;;;;;;;;;;;21.55;79.05;101514.41;4999643;28;20559;-87
2023/05/27 03:00:34;;;;;;;;;;;;;;;21.55;76.98;101514.41;5022979;28;19925;-88
2023/05/27 03:03:05;;;;;;;;;;;;;;;21.60;77.19;101507.59;5030254;28;19924;-87
2023/05/27 03:05:32;;;;;;;;;;;;;;;21.65;76.25;101502.47;5024637;28;19982;-87
2023/05/27 03:07:59;;;;;;;;;;;;;;;21.63;76.81;101504.53;5038223;28;19928;-87
2023/05/27 03:10:26;;;;;;;;;;;;;;;21.67;76.87;101500.41;5033289;28;19925;-87
2023/05/27 03:12:55;;;;;;;;;;;;;;;21.67;74.88;101486.91;5028750;28;20011;-87
2023/05/27 03:15:21;;;;;;;;;;;;;;;21.77;74.67;101491.00;5024183;28;20185;-86
2023/05/27 03:17:48;;;;;;;;;;;;;;;21.80;75.70;101486.22;5036913;28;19928;-86
2023/05/27 03:20:16;;;;;;;;;;;;;;;21.90;74.22;101484.94;5011594;28;20128;-86
2023/05/27 03:22:43;;;;;;;;;;;;;;;21.88;74.76;101481.56;5036240;28;20006;-85
2023/05/27 03:25:11;;;;;;;;;;;;;;;21.82;76.34;101474.25;5022258;28;19935;-86
2023/05/27 03:27:38;;;;;;;;;;;;;;;21.79;77.82;101469.19;5035245;28;19932;-84
2023/05/27 03:30:07;;;;;;;;;;;;;;;21.69;76.01;101468.66;5026519;28;20792;-84
2023/05/27 03:32:38;;;;;;;;;;;;;;;21.68;76.34;101459.72;5020498;28;20416;-85
2023/05/27 03:35:07;;;;;;;;;;;;;;;21.64;76.13;101457.56;5031369;28;19966;-85
2023/05/27 03:37:36;;;;;;;;;;;;;;;21.40;75.29;101402.00;5026639;28;20244;-85
2023/05/27 03:40:05;;;;;;;;;;;;;;;21.66;76.24;101448.25;5007627;28;19925;-84
2023/05/27 03:42:33;;;;;;;;;;;;;;;21.46;75.92;101412.88;4999426;28;20348;-85
2023/05/27 03:45:02;;;;;;;;;;;;;;;21.67;75.07;101447.22;5007989;28;20335;-84
2023/05/27 03:47:30;;;;;;;;;;;;;;;21.64;75.34;101441.38;5030146;28;20441;-86
2023/05/27 03:50:00;;;;;;;;;;;;;;;21.64;75.63;101446.75;5012462;28;20027;-85
2023/05/27 03:52:29;;;;;;;;;;;;;;;21.63;75.85;101450.50;5014624;28;20202;-86
2023/05/27 03:54:56;;;;;;;;;;;;;;;21.57;76.75;101452.06;5019290;28;19967;-85
2023/05/27 03:57:27;;;;;;;;;;;;;;;21.58;76.87;101461.00;5004901;28;20253;-85
2023/05/27 03:59:58;;;;;;;;;;;;;;;21.57;76.96;101467.47;5017341;28;19928;-86
2023/05/27 04:02:29;;;;;;;;;;;;;;;21.54;76.54;101472.22;5015085;28;19979;-86
2023/05/27 04:05:06;;;;;;;;;;;;;;;21.52;77.60;101478.81;4983166;28;20363;-85
2023/05/27 04:07:43;;;;;;;;;;;;;;;21.47;77.38;101492.06;4986355;28;20439;-86
2023/05/27 04:10:22;;;;;;;;;;;;;;;21.40;78.47;101500.06;4998764;28;20408;-85
2023/05/27 04:12:52;;;;;;;;;;;;;;;21.42;77.15;101500.72;4992006;28;19928;-86
2023/05/27 04:15:19;;;;;;;;;;;;;;;21.41;77.07;101509.84;4973011;28;20287;-85
2023/05/27 04:17:48;;;;;;;;;;;;;;;20.86;77.11;101411.19;4971588;28;20789;-85
2023/05/27 04:20:23;;;;;;;;;;;;;;;21.48;78.91;101515.34;4996387;28;20110;-87
2023/05/27 04:22:51;;;;;;;;;;;;;;;21.46;79.07;101520.94;5012368;28;20522;-86
2023/05/27 04:25:17;;;;;;;;;;;;;;;21.46;79.01;101526.34;5006832;28;19931;-86
2023/05/27 04:27:44;;;;;;;;;;;;;;;21.46;79.29;101520.94;5029373;28;19932;-87
2023/05/27 04:30:11;;;;;;;;;;;;;;;21.44;79.43;101528.38;4999697;28;19936;-87
2023/05/27 04:32:40;;;;;;;;;;;;;;;21.43;78.94;101525.84;5020135;28;19928;-86
2023/05/27 04:35:08;;;;;;;;;;;;;;;21.39;79.88;101525.41;5016778;28;20015;-87
2023/05/27 04:37:40;;;;;;;;;;;;;;;21.19;79.48;101487.28;5020326;28;19994;-86
2023/05/27 04:40:13;;;;;;;;;;;;;;;21.49;80.44;101546.75;4989220;28;19925;-87
2023/05/27 04:42:43;;;;;;;;;;;;;;;21.19;80.04;101511.56;5019165;28;19958;-86
2023/05/27 04:45:12;;;;;;;;;;;;;;;21.46;78.88;101564.16;5035604;28;20167;-85
2023/05/27 04:47:40;;;;;;;;;;;;;;;21.52;77.68;101576.06;5031934;28;19928;-87
2023/05/27 04:50:08;;;;;;;;;;;;;;;21.33;78.51;101574.72;5012914;28;20019;-85
2023/05/27 04:52:38;;;;;;;;;;;;;;;21.32;78.62;101589.25;4973478;28;19925;-86
2023/05/27 04:55:05;;;;;;;;;;;;;;;21.23;79.00;101584.94;4973286;28;20612;-86
2023/05/27 04:57:35;;;;;;;;;;;;;;;20.91;78.54;101538.31;4961489;28;19925;-86
2023/05/27 05:02:34;;;;;;;;;;;;;;;21.24;77.78;101600.97;4968916;28;20111;-85
2023/05/27 05:05:02;;;;;;;;;;;;;;;21.22;78.00;101597.59;4973921;28;19928;-85
2023/05/27 05:07:31;;;;;;;;;;;;;;;21.21;77.75;101597.78;4967386;28;19933;-85
2023/05/27 05:09:58;;;;;;;;;;;;;;;21.19;76.52;101607.91;4963851;28;20107;-86
2023/05/27 05:12:27;;;;;;;;;;;;;;;21.23;75.81;101611.94;4963627;28;20533;-85
2023/05/27 05:14:57;;;;;;;;;;;;;;;21.24;74.50;101613.59;5009627;28;19929;-86
2023/05/27 05:17:24;;;;;;;;;;;;;;;21.28;73.66;101620.34;5007000;28;20269;-86
2023/05/27 05:19:52;;;;;;;;;;;;;;;21.22;74.27;101616.50;4981294;28;20396;-85
2023/05/27 05:22:22;;;;;;;;;;;;;;;21.22;74.13;101621.06;4986384;28;19924;-85
2023/05/27 05:24:51;;;;;;;;;;;;;;;21.31;74.62;101609.16;4969852;28;20266;-85
2023/05/27 05:27:25;;;;;;;;;;;;;;;21.33;75.48;101623.31;4965859;28;19924;-86
2023/05/27 05:29:58;;;;;;;;;;;;;;;21.39;75.19;101624.47;4972776;28;20273;-85
2023/05/27 05:32:28;;;;;;;;;;;;;;;21.39;74.54;101617.25;4978554;28;19951;-85
2023/05/27 05:34:55;;;;;;;;;;;;;;;21.55;73.67;101627.03;5008542;28;19925;-84
2023/05/27 05:37:21;;;;;;;;;;;;;;;21.54;74.01;101626.19;5021908;28;19925;-85
2023/05/27 05:39:48;;;;;;;;;;;;;;;21.56;74.12;101623.31;5013687;28;20083;-84
2023/05/27 05:42:16;;;;;;;;;;;;;;;21.65;74.04;101621.34;5007434;28;19948;-85
2023/05/27 05:44:42;;;;;;;;;;;;;;;21.65;73.03;101616.81;4993990;28;19932;-84
2023/05/27 05:47:11;;;;;;;;;;;;;;;21.74;73.18;101618.38;4998074;28;19931;-85
2023/05/27 05:49:39;;;;;;;;;;;;;;;21.92;71.58;101623.44;5008771;28;19983;-84
2023/05/27 05:52:06;;;;;;;;;;;;;;;21.93;71.02;101624.28;5007643;28;20213;-85
2023/05/27 05:54:36;;;;;;;;;;;;;;;21.93;71.00;101614.28;5014298;28;19928;-85
2023/05/27 05:57:07;;;;;;;;;;;;;;;21.91;71.83;101626.31;5010896;28;19952;-85
2023/05/27 05:59:33;;;;;;;;;;;;;;;22.01;70.62;101618.75;5019749;28;19924;-85
2023/05/27 06:02:00;;;;;;;;;;;;;;;21.95;72.12;101622.22;5029508;28;20180;-84
2023/05/27 06:04:28;;;;;;;;;;;;;;;22.01;70.17;101621.47;5022180;28;19931;-83
2023/05/27 06:06:55;;;;;;;;;;;;;;;22.08;69.86;101618.84;5007522;28;20304;-84
2023/05/27 06:09:25;;;;;;;;;;;;;;;22.07;69.65;101622.59;5037841;28;20075;-83
2023/05/27 06:11:52;;;;;;;;;;;;;;;22.05;69.31;101622.78;5016582;28;20295;-84
2023/05/27 06:14:19;;;;;;;;;;;;;;;22.06;70.46;101612.78;5018899;28;20381;-83
2023/05/27 06:16:46;;;;;;;;;;;;;;;22.05;69.99;101606.56;5011905;28;20130;-83
2023/05/27 06:19:12;;;;;;;;;;;;;;;22.06;69.82;101610.09;5018642;28;20271;-83
2023/05/27 06:21:41;;;;;;;;;;;;;;;22.19;69.62;101619.22;5023276;28;19932;-84
2023/05/27 06:24:10;;;;;;;;;;;;;;;22.18;69.85;101611.28;5029170;28;20398;-84
2023/05/27 06:26:38;;;;;;;;;;;;;;;22.18;69.53;101605.88;5029603;28;19925;-85
2023/05/27 06:29:06;;;;;;;;;;;;;;;22.13;70.12;101608.31;5014147;28;19928;-84
2023/05/27 06:31:33;;;;;;;;;;;;;;;22.10;70.17;101606.00;5022289;28;20449;-85
2023/05/27 06:34:00;;;;;;;;;;;;;;;22.08;69.76;101599.94;5039514;28;19924;-85
2023/05/27 06:36:26;;;;;;;;;;;;;;;22.02;69.93;101600.69;5020861;28;20255;-84
2023/05/27 06:38:53;;;;;;;;;;;;;;;22.00;70.76;101598.16;5003320;28;20417;-85
2023/05/27 06:41:22;;;;;;;;;;;;;;;22.03;70.90;101595.09;4989210;28;20177;-86
2023/05/27 06:43:49;;;;;;;;;;;;;;;22.10;70.85;101593.31;5019051;28;19932;-85
2023/05/27 06:46:16;;;;;;;;;;;;;;;22.15;70.50;101595.44;5016680;28;19925;-85
2023/05/27 06:48:43;;;;;;;;;;;;;;;22.29;69.60;101597.31;5015151;28;20641;-84
2023/05/27 06:51:10;;;;;;;;;;;;;;;22.37;67.41;101588.25;4996450;28;20135;-85
2023/05/27 06:53:36;;;;;;;;;;;;;;;22.27;68.08;101587.72;5002617;28;20257;-85
2023/05/27 06:56:03;;;;;;;;;;;;;;;22.30;68.47;101582.75;4991582;28;19932;-85
2023/05/27 06:58:32;;;;;;;;;;;;;;;22.40;68.59;101577.91;4975569;28;20362;-84
2023/05/27 07:01:05;;;;;;;;;;;;;;;22.16;68.29;101529.50;4961468;28;20121;-84
2023/05/27 07:03:38;;;;;;;;;;;;;;;22.54;68.56;101576.16;5008870;28;19931;-84
2023/05/27 07:06:05;;;;;;;;;;;;;;;22.57;66.81;101573.09;5024183;28;20302;-84
2023/05/27 07:08:32;;;;;;;;;;;;;;;22.62;66.74;101569.78;5009645;28;20019;-85
2023/05/27 07:10:59;;;;;;;;;;;;;;;22.72;66.08;101567.63;5017594;28;19925;-85
2023/05/27 07:13:26;;;;;;;;;;;;;;;22.75;65.85;101575.34;5006494;28;19972;-85
2023/05/27 07:15:53;;;;;;;;;;;;;;;22.77;66.36;101569.75;5016188;28;20173;-85
2023/05/27 07:18:20;;;;;;;;;;;;;;;22.79;67.24;101570.38;4993508;28;20331;-85
2023/05/27 07:20:46;;;;;;;;;;;;;;;22.90;66.23;101560.91;4992467;28;20638;-85
2023/05/27 07:23:17;;;;;;;;;;;;;;;22.90;65.83;101563.63;5035650;28;20402;-85
2023/05/27 07:25:43;;;;;;;;;;;;;;;22.94;66.08;101559.50;5024279;28;20255;-86
2023/05/27 07:28:12;;;;;;;;;;;;;;;22.79;65.43;101536.03;5033770;28;20004;-85
2023/05/27 07:30:40;;;;;;;;;;;;;;;23.12;65.69;101559.88;5041944;28;19931;-85
2023/05/27 07:33:07;;;;;;;;;;;;;;;23.11;64.92;101563.63;5015306;28;19929;-86
2023/05/27 07:35:34;;;;;;;;;;;;;;;23.01;64.72;101530.59;5005111;28;19929;-86
2023/05/27 07:38:04;;;;;;;;;;;;;;;23.26;63.97;101552.69;4993859;28;20118;-85
2023/05/27 07:40:38;;;;;;;;;;;;;;;22.97;64.15;101497.66;4954034;28;20388;-85
2023/05/27 07:43:11;;;;;;;;;;;;;;;23.22;63.93;101544.09;4994125;28;19935;-86
2023/05/27 07:45:38;;;;;;;;;;;;;;;23.24;64.04;101539.34;5035452;28;20201;-86
2023/05/27 07:48:08;;;;;;;;;;;;;;;23.26;63.66;101541.88;5034785;28;20184;-86
2023/05/27 07:50:35;;;;;;;;;;;;;;;23.45;63.28;101532.19;5032935;28;20035;-86
2023/05/27 07:53:02;;;;;;;;;;;;;;;23.46;62.84;101533.84;5030851;28;20417;-85
2023/05/27 07:55:31;;;;;;;;;;;;;;;23.44;62.69;101525.09;5024559;28;20284;-82
2023/05/27 07:58:00;;;;;;;;;;;;;;;23.54;62.61;101530.97;5029516;28;19955;-85
2023/05/27 08:00:35;;;;;;;;;;;;;;;23.27;63.02;101494.75;5027694;28;19929;-85
2023/05/27 08:03:03;;;;;;;;;;;;;;;22.92;62.24;101420.78;5013337;28;20691;-84
2023/05/27 08:05:32;;;;;;;;;;;;;;;23.61;62.91;101537.28;5006101;28;20266;-86
2023/05/27 08:07:59;;;;;;;;;;;;;;;23.68;62.13;101532.72;5003447;28;20460;-85
2023/05/27 08:10:31;;;;;;;;;;;;;;;23.65;61.75;101535.84;5024004;28;19931;-84
2023/05/27 08:13:01;;;;;;;;;;;;;;;23.81;61.64;101532.00;5016740;28;20232;-85
2023/05/27 08:15:28;;;;;;;;;;;;;;;23.82;61.95;101528.25;5026788;28;19924;-85
2023/05/27 08:17:56;;;;;;;;;;;;;;;23.57;61.96;101487.25;5034005;28;19932;-85
2023/05/27 08:20:23;;;;;;;;;;;;;;;23.91;62.09;101526.22;5027496;28;19924;-84
2023/05/27 08:22:53;;;;;;;;;;;;;;;23.68;61.45;101483.09;5023372;28;19924;-85
2023/05/27 08:25:23;;;;;;;;;;;;;;;24.18;61.75;101531.72;5036662;28;20085;-86
2023/05/27 08:27:50;;;;;;;;;;;;;;;24.25;60.78;101527.16;5036040;28;19956;-85
2023/05/27 08:30:18;;;;;;;;;;;;;;;24.26;61.46;101526.09;5042741;28;19965;-85
2023/05/27 08:32:45;;;;;;;;;;;;;;;24.43;61.91;101521.97;5024337;28;20448;-86
2023/05/27 08:35:14;;;;;;;;;;;;;;;24.40;59.31;101519.69;4997695;28;19978;-86
2023/05/27 08:37:41;;;;;;;;;;;;;;;24.44;59.05;101526.38;5030941;28;19924;-86
2023/05/27 08:40:10;;;;;;;;;;;;;;;24.53;58.54;101518.88;5030132;28;19924;-86
2023/05/27 08:42:37;;;;;;;;;;;;;;;24.65;59.08;101519.13;5036088;28;19931;-85
2023/05/27 08:45:05;;;;;;;;;;;;;;;24.78;58.94;101510.97;5051015;28;19928;-87
2023/05/27 08:47:35;;;;;;;;;;;;;;;24.94;57.86;101515.97;5042033;28;20239;-87
2023/05/27 08:50:03;;;;;;;;;;;;;;;24.98;56.47;101504.69;5027675;28;20240;-84
2023/05/27 08:52:30;;;;;;;;;;;;;;;24.94;58.54;101509.72;5020937;28;20257;-85
2023/05/27 08:54:57;;;;;;;;;;;;;;;25.06;57.61;101507.22;5035510;28;20326;-86
2023/05/27 08:57:31;;;;;;;;;;;;;;;24.85;54.84;101460.19;4989594;28;20006;-86
2023/05/27 09:00:11;;;;;;;;;;;;;;;25.18;56.20;101474.84;4987926;28;19931;-86
2023/05/27 09:02:41;;;;;;;;;;;;;;;25.12;55.01;101457.44;5033862;28;19974;-86
2023/05/27 09:05:09;;;;;;;;;;;;;;;25.58;56.42;101500.88;5036633;28;19925;-86
2023/05/27 09:07:37;;;;;;;;;;;;;;;25.68;56.54;101507.72;5014757;28;20079;-84
2023/05/27 09:10:06;;;;;;;;;;;;;;;25.77;53.31;101507.25;5007328;28;19924;-85
2023/05/27 09:12:34;;;;;;;;;;;;;;;25.86;51.99;101507.06;5008819;28;20427;-85
2023/05/27 09:15:02;;;;;;;;;;;;;;;25.95;52.33;101511.22;5008861;28;20286;-85
2023/05/27 09:17:28;;;;;;;;;;;;;;;25.74;51.35;101499.53;5010839;28;20139;-86
2023/05/27 09:19:56;;;;;;;;;;;;;;;25.72;53.46;101500.81;5001991;28;20183;-85
2023/05/27 09:22:28;;;;;;;;;;;;;;;25.98;54.08;101506.16;5018777;28;19932;-86
2023/05/27 09:24:56;;;;;;;;;;;;;;;25.83;54.38;101493.84;5018581;28;19925;-86
2023/05/27 09:27:27;;;;;;;;;;;;;;;25.96;54.21;101496.56;5006637;28;19925;-86
2023/05/27 09:29:55;;;;;;;;;;;;;;;26.20;50.88;101495.78;5011000;28;20285;-85
2023/05/27 09:32:25;;;;;;;;;;;;;;;26.12;51.21;101489.75;5039831;28;19978;-85
2023/05/27 09:34:52;;;;;;;;;;;;;;;26.13;51.18;101492.25;5039930;28;20053;-86
2023/05/27 09:37:21;;;;;;;;;;;;;;;26.10;52.29;101498.16;5040910;28;19924;-87
2023/05/27 09:39:48;;;;;;;;;;;;;;;26.30;52.52;101492.59;5044976;28;20358;-86
2023/05/27 09:42:19;;;;;;;;;;;;;;;26.19;52.39;101494.13;5034939;28;19991;-86
2023/05/27 09:44:48;;;;;;;;;;;;;;;26.20;51.98;101486.78;5011323;28;20364;-87
2023/05/27 09:47:17;;;;;;;;;;;;;;;25.91;51.85;101447.41;5003588;28;19929;-85
2023/05/27 09:49:44;;;;;;;;;;;;;;;26.11;51.85;101491.66;5015229;28;20198;-84
2023/05/27 09:52:12;;;;;;;;;;;;;;;26.05;51.75;101489.81;5027137;28;20644;-85
2023/05/27 09:54:40;;;;;;;;;;;;;;;26.14;50.30;101483.06;5025049;28;20285;-83
2023/05/27 09:57:09;;;;;;;;;;;;;;;26.13;50.07;101475.94;5018491;28;20548;-85
2023/05/27 09:59:37;;;;;;;;;;;;;;;26.53;47.96;101481.16;5029524;28;20332;-87
2023/05/27 10:02:08;;;;;;;;;;;;;;;26.57;47.55;101443.41;5031447;28;19928;-84
2023/05/27 10:04:35;;;;;;;;;;;;;;;26.77;47.75;101470.47;5008377;28;20048;-86
2023/05/27 10:07:03;;;;;;;;;;;;;;;26.71;48.27;101479.56;5022896;28;19939;-87
2023/05/27 10:09:31;;;;;;;;;;;;;;;26.87;47.42;101468.09;5026917;28;19925;-86
2023/05/27 10:12:01;;;;;;;;;;;;;;;27.20;46.92;101469.69;5005091;28;20290;-87
2023/05/27 10:14:37;;;;;;;;;;;;;;;27.42;45.96;101470.88;5017185;28;19929;-85
2023/05/27 10:17:06;;;;;;;;;;;;;;;27.36;44.17;101474.53;5006895;28;20608;-84
2023/05/27 10:19:35;;;;;;;;;;;;;;;27.36;44.58;101462.81;5035733;28;20024;-86
2023/05/27 10:22:12;;;;;;;;;;;;;;;27.57;45.20;101466.94;5026655;28;20023;-88
2023/05/27 10:24:39;;;;;;;;;;;;;;;27.56;45.76;101468.03;5033418;28;19986;-86
2023/05/27 10:27:06;;;;;;;;;;;;;;;27.67;45.67;101459.03;5022000;28;19924;-87
2023/05/27 10:29:37;;;;;;;;;;;;;;;27.89;45.52;101465.72;5007542;28;20064;-86
2023/05/27 10:32:07;;;;;;;;;;;;;;;27.85;44.43;101455.50;5016585;28;19925;-86
2023/05/27 10:34:46;;;;;;;;;;;;;;;28.12;44.99;101455.97;5027573;28;19924;-86
2023/05/27 10:37:19;;;;;;;;;;;;;;;28.04;43.38;101461.75;5013964;28;20023;-86
2023/05/27 10:39:54;;;;;;;;;;;;;;;28.08;44.11;101455.56;5010291;28;19928;-85
2023/05/27 10:42:24;;;;;;;;;;;;;;;28.11;46.16;101460.59;5007379;28;19935;-83
2023/05/27 10:45:02;;;;;;;;;;;;;;;28.20;45.72;101454.78;5003184;28;19975;-85
2023/05/27 10:47:29;;;;;;;;;;;;;;;28.35;45.35;101460.63;5021867;28;19925;-84
2023/05/27 10:49:57;;;;;;;;;;;;;;;28.45;45.30;101452.75;5041650;28;19975;-85
2023/05/27 10:52:26;;;;;;;;;;;;;;;28.53;44.25;101462.50;5032228;28;19965;-84
2023/05/27 10:54:57;;;;;;;;;;;;;;;28.72;42.99;101453.13;5049414;28;19925;-85
2023/05/27 10:57:30;;;;;;;;;;;;;;;28.84;40.03;101452.31;5041388;28;20412;-86
2023/05/27 11:00:00;;;;;;;;;;;;;;;28.96;39.11;101450.41;5044769;28;19932;-86
2023/05/27 11:02:31;;;;;;;;;;;;;;;28.90;37.74;101440.41;5035338;28;19929;-85
2023/05/27 11:04:58;;;;;;;;;;;;;;;28.99;36.72;101436.25;5036563;28;19929;-86
2023/05/27 11:07:25;;;;;;;;;;;;;;;29.09;37.21;101444.72;5015770;28;19986;-87
2023/05/27 11:09:53;;;;;;;;;;;;;;;29.13;35.31;101448.63;5036957;28;20174;-84
2023/05/27 11:12:21;;;;;;;;;;;;;;;29.41;33.31;101444.28;5046169;28;19972;-85
2023/05/27 11:14:53;;;;;;;;;;;;;;;29.40;33.90;101437.19;5030224;28;20119;-84
2023/05/27 11:17:23;;;;;;;;;;;;;;;29.44;34.86;101435.59;4998713;28;20284;-84
2023/05/27 11:19:53;;;;;;;;;;;;;;;29.44;34.86;101429.31;5017770;28;20032;-85
2023/05/27 11:22:20;;;;;;;;;;;;;;;29.72;35.14;101436.75;5038963;28;19925;-85
2023/05/27 11:24:57;;;;;;;;;;;;;;;29.93;35.02;101427.00;5027685;28;20393;-86
2023/05/27 11:27:36;;;;;;;;;;;;;;;29.76;35.32;101359.41;5006560;28;20295;-84
2023/05/27 11:30:10;;;;;;;;;;;;;;;30.34;34.69;101422.25;5005921;28;20485;-86
2023/05/27 11:32:42;;;;;;;;;;;;;;;30.55;34.56;101418.78;5018063;28;20399;-86
2023/05/27 11:35:16;;;;;;;;;;;;;;;30.62;33.60;101413.13;5018605;28;20005;-85
2023/05/27 11:37:47;;;;;;;;;;;;;;;30.50;32.32;101406.91;5016776;28;20128;-86
2023/05/27 11:40:13;;;;;;;;;;;;;;;30.68;33.57;101403.88;4993318;28;19924;-85
2023/05/27 11:42:46;;;;;;;;;;;;;;;30.32;34.16;101329.41;5026430;28;19990;-85
2023/05/27 11:45:17;;;;;;;;;;;;;;;30.74;33.83;101399.34;5017994;28;20044;-85
2023/05/27 11:47:50;;;;;;;;;;;;;;;31.02;33.98;101395.63;5027974;28;20058;-85
2023/05/27 11:50:19;;;;;;;;;;;;;;;31.02;33.50;101396.47;5050889;28;19951;-84
2023/05/27 11:52:53;;;;;;;;;;;;;;;31.05;33.57;101384.16;5057614;28;19928;-85
2023/05/27 11:55:25;;;;;;;;;;;;;;;31.29;34.49;101390.22;5043688;28;19939;-84
2023/05/27 11:57:58;;;;;;;;;;;;;;;31.37;33.11;101391.69;5037962;28;19924;-84
2023/05/27 12:00:25;;;;;;;;;;;;;;;31.59;33.26;101395.25;5024463;28;19996;-85
2023/05/27 12:02:52;;;;;;;;;;;;;;;31.69;33.92;101384.38;5037398;28;19928;-85
2023/05/27 12:05:22;;;;;;;;;;;;;;;32.01;32.12;101383.63;5039448;28;19931;-85
2023/05/27 12:08:00;;;;;;;;;;;;;;;31.83;32.68;101378.50;5019241;28;19932;-85
2023/05/27 12:10:27;;;;;;;;;;;;;;;31.96;32.39;101378.06;5048257;28;19952;-85
2023/05/27 12:13:07;;;;;;;;;;;;;;;31.85;32.64;101379.06;5014849;28;19924;-83
2023/05/27 12:15:37;;;;;;;;;;;;;;;31.94;33.32;101371.97;5023479;28;19925;-82
2023/05/27 12:18:05;;;;;;;;;;;;;;;32.26;32.12;101373.91;5000335;28;20329;-84
2023/05/27 12:20:33;;;;;;;;;;;;;;;32.10;32.39;101371.06;5002562;28;20298;-84
2023/05/27 12:23:05;;;;;;;;;;;;;;;31.86;32.36;101339.53;5009535;28;20439;-83
2023/05/27 12:25:51;;;;;;;;;;;;;;;32.11;32.78;101372.75;4991972;28;19986;-83
2023/05/27 12:28:22;;;;;;;;;;;;;;;32.15;32.17;101364.78;4987753;28;20001;-84
2023/05/27 12:30:51;;;;;;;;;;;;;;;32.32;32.73;101370.97;4982864;28;20160;-84
2023/05/27 12:33:29;;;;;;;;;;;;;;;32.23;33.37;101360.72;5003507;28;20065;-83
2023/05/27 12:36:07;;;;;;;;;;;;;;;32.11;32.81;101327.94;5016852;28;19932;-83
2023/05/27 12:38:44;;;;;;;;;;;;;;;32.31;33.31;101352.00;5041637;28;19940;-84
2023/05/27 12:41:12;;;;;;;;;;;;;;;31.89;32.09;101284.09;5027654;28;19929;-83
2023/05/27 12:43:39;;;;;;;;;;;;;;;32.00;32.97;101351.75;5025196;28;19925;-82
2023/05/27 12:46:06;;;;;;;;;;;;;;;32.17;33.60;101348.06;5011084;28;19990;-83
2023/05/27 12:48:35;;;;;;;;;;;;;;;32.09;33.27;101306.25;4969132;28;20258;-82